• Join FlightAware (Why Join?)
  • Login
  • US Flag 
03:14PM EDT


 

Airport Tracker/Info


-or-


 

Live Flight TrackerFlight Track Log ✈ SKW5564 ✈ 11-Jul-2013 ✈ KSLC - KDEN

Flight Track Log - Related Links

Times and Time Zones

All times are in EDT time to prevent confusion due to time zone crossing. See the SKW5564 flight status page for this flight to view local times or setup timezone preferences in your user account.

Time Position Orientation Groundspeed Altitude Reporting Facility
EDT Latitude Longitude Course Direction KTS MPH feet Rate Location/Type
03:32PM 40.8197 -111.9806 90° East 186 214 5,100  Level Salt Lake Center
03:33PM 40.8861 -111.9892 354° North 232 267 6,700 1,560 Climbing Salt Lake Center
03:34PM 40.9544 -111.9972 355° North 275 316 8,300 1,980 Climbing Salt Lake Center
03:36PM 41.0597 -112.0025 358° North 298 343 11,200 2,100 Climbing Salt Lake Center
03:37PM 41.0189 -111.6817 149° Southeast  Level FlightAware Approximate
03:37PM 41.0994 -111.9100 60° Northeast 303 349 13,200  Level Salt Lake Center
03:38PM 40.9167 -111.5953 90° East  Level FlightAware Approximate
03:38PM 41.0628 -111.8008 114° Southeast 312 359 14,400  Level Salt Lake Center
03:39PM 41.0178 -111.6814 117° Southeast 349 402 16,100 1,560 Climbing Salt Lake Center
03:40PM 40.9711 -111.5625 117° Southeast 362 417 17,700 1,380 Climbing Salt Lake Center
03:41PM 40.9231 -111.4361 117° Southeast 381 438 19,000 1,380 Climbing Salt Lake Center
03:42PM 40.8964 -111.2933 104° East 405 466 20,600 1,440 Climbing Salt Lake Center
03:43PM 40.8786 -111.1458 99° East 409 471 22,000 1,440 Climbing Salt Lake Center
03:44PM 40.8600 -110.9925 99° East 422 486 23,600 1,380 Climbing Salt Lake Center
03:45PM 40.8381 -110.8058 99° East 430 495 24,900 960 Climbing Salt Lake Center
03:46PM 40.8172 -110.6458 100° East 442 509 25,600 780 Climbing Salt Lake Center
03:47PM 40.7972 -110.4811 99° East 455 524 26,600 1,020 Climbing Salt Lake Center
03:48PM 40.7736 -110.2956 99° East 460 529 27,800 960 Climbing Salt Lake Center
03:49PM 40.7550 -110.1431 99° East 463 533 28,700 720 Climbing Salt Lake Center
03:50PM 40.7350 -109.9503 98° East 475 547 29,400 720 Climbing Salt Lake Center
03:51PM 40.7242 -109.7792 95° East 485 558 30,200 900 Climbing Salt Lake Center
03:52PM 40.7097 -109.5803 95° East 487 560 31,300 960 Climbing Salt Lake Center
03:53PM 40.6972 -109.4089 95° East 488 562 32,300 900 Climbing Salt Lake Center
03:54PM 40.6844 -109.2403 96° East 484 557 33,200 960 Climbing Salt Lake Center
03:55PM 40.6750 -109.0975 95° East 482 555 34,000 1,020 Climbing Denver Center
03:56PM 40.6614 -108.9311 96° East 480 552 35,000 960 Climbing Denver Center
03:57PM 40.6472 -108.7642 96° East 478 550 36,000 840 Climbing Denver Center
03:58PM 40.6319 -108.5719 96° East 472 543 36,800 480 Climbing Denver Center
03:59PM 40.6153 -108.3747 96° East 482 555 37,000 60 Climbing Denver Center
04:00PM 40.5997 -108.2028 97° East 491 565 37,000  Level Denver Center
04:01PM 40.5828 -107.9944 96° East 508 585 37,000  Level Denver Center
04:02PM 40.5669 -107.8167 97° East 509 586 37,000  Level Denver Center
04:03PM 40.5500 -107.6378 97° East 513 590 37,000  Level Denver Center
04:05PM 40.5172 -107.2481 96° East 517 595 37,000  Level Denver Center
04:06PM 40.5006 -107.0381 96° East 516 594 37,000 -540 Level Denver Center
04:07PM 40.4842 -106.8514 97° East 514 592 36,000 -1,500 Descending Denver Center
04:08PM 40.4689 -106.6664 96° East 509 586 33,900 -2,040 Descending Denver Center
04:09PM 40.4533 -106.4844 96° East 497 572 31,900 -2,040 Descending Denver Center
04:11PM 40.4375 -106.2944 96° East 471 542 29,400 -2,340 Descending Denver Center
04:12PM 40.4208 -106.1000 96° East 444 511 26,700 -2,280 Descending Denver Center
04:13PM 40.4069 -105.9500 97° East 422 486 24,800 -1,740 Descending Denver Center
04:14PM 40.3936 -105.8106 97° East 390 449 23,200 -1,680 Descending Denver Center
04:15PM 40.3800 -105.6783 98° East 371 427 21,400 -1,680 Descending Denver Center
04:16PM 40.3672 -105.5461 97° East 366 421 19,800 -1,800 Descending Denver Center
04:17PM 40.3514 -105.3947 98° East 373 429 17,800 -1,680 Descending Denver Center
04:18PM 40.3336 -105.2622 100° East 348 400 16,400 -1,380 Descending Denver Center
04:19PM 40.3167 -105.1478 101° East 325 374 15,000 -1,260 Descending Denver Center
04:20PM 40.3022 -105.0389 100° East 308 354 13,800 -1,080 Descending Denver Center
04:21PM 40.2858 -104.9275 101° East 293 337 12,800 -1,020 Descending Denver Center
04:22PM 40.2414 -104.8414 124° Southeast 287 330 11,700 -1,200 Descending Denver Center
04:23PM 40.1733 -104.7867 148° Southeast 268 308 10,200 -1,380 Descending Denver Center
04:24PM 40.0944 -104.7375 155° Southeast 256 295 8,700 -1,500 Descending Denver Center